Time;durP1;ratioP1;P1;durP2;ratioP2;P2;SDS_P1;SDS_P2;PMS_P1;PMS_P2;Temp;Humidity;BMP_temperature;BMP_pressure;BME280_temperature;BME280_humidity;BME280_pressure;Samples;Min_cycle;Max_cycle;Signal;HPM_P1;HPM_P2
2021/05/04 00:02:55;;;;;;;18.87;17.23;;;;;;;7.38;72.35;100663.28;6141026;28;20682;-52
2021/05/04 00:06:15;;;;;;;17.97;16.37;;;;;;;7.81;70.97;100647.75;6139812;28;20267;-53
2021/05/04 00:09:36;;;;;;;18.77;17.07;;;;;;;7.94;69.99;100633.94;6130930;28;20227;-51
2021/05/04 00:12:57;;;;;;;17.33;15.83;;;;;;;7.53;71.21;100626.19;6136841;28;20250;-55
2021/05/04 00:16:17;;;;;;;17.43;15.87;;;;;;;7.95;69.70;100599.38;6138882;28;20239;-53
2021/05/04 00:19:39;;;;;;;16.77;15.40;;;;;;;8.10;69.15;100593.25;6133186;28;20455;-54
2021/05/04 00:23:00;;;;;;;16.90;15.53;;;;;;;8.04;69.29;100568.19;6125946;28;20254;-55
2021/05/04 00:26:21;;;;;;;18.53;16.77;;;;;;;8.11;68.54;100563.03;6134908;28;20239;-55
2021/05/04 00:29:42;;;;;;;18.40;16.83;;;;;;;7.84;69.74;100538.88;6139700;28;20493;-54
2021/05/04 00:33:03;;;;;;;16.50;15.00;;;;;;;7.96;69.18;100523.28;6132594;28;20240;-53
2021/05/04 00:36:24;;;;;;;16.03;14.60;;;;;;;7.68;69.72;100502.63;6143211;28;20635;-55
2021/05/04 00:39:45;;;;;;;17.07;15.73;;;;;;;7.91;69.27;100493.03;6136979;28;20318;-53
2021/05/04 00:43:05;;;;;;;17.93;16.47;;;;;;;7.44;70.40;100480.22;6134418;28;20331;-52
2021/05/04 00:46:27;;;;;;;16.17;14.87;;;;;;;7.85;68.90;100465.41;6139849;28;20259;-52
2021/05/04 00:49:47;;;;;;;15.70;14.37;;;;;;;7.91;68.77;100468.00;6127953;28;20228;-49
2021/05/04 00:53:08;;;;;;;13.50;12.47;;;;;;;7.98;67.50;100453.25;6131242;28;20442;-53
2021/05/04 00:56:29;;;;;;;14.23;12.97;;;;;;;8.11;67.33;100446.31;6147082;28;20251;-52
2021/05/04 00:59:50;;;;;;;14.83;13.60;;;;;;;7.81;67.99;100451.63;6132174;28;20314;-55
2021/05/04 01:03:12;;;;;;;15.07;13.77;;;;;;;7.92;67.80;100442.94;6134590;28;20315;-55
2021/05/04 01:06:34;;;;;;;13.73;12.63;;;;;;;7.65;68.36;100422.28;6139804;28;20516;-53
2021/05/04 01:09:54;;;;;;;14.03;12.90;;;;;;;7.88;67.78;100424.78;6140996;28;20231;-51
2021/05/04 01:13:15;;;;;;;15.10;13.87;;;;;;;8.02;67.48;100405.69;6132324;28;20236;-51
2021/05/04 01:16:35;;;;;;;15.00;13.73;;;;;;;8.16;67.20;100403.03;6138678;28;20230;-53
2021/05/04 01:19:56;;;;;;;15.70;14.30;;;;;;;8.15;66.88;100375.38;6135144;28;20262;-53
2021/05/04 01:23:18;;;;;;;14.07;12.87;;;;;;;8.21;66.77;100386.56;6141773;28;20808;-51
2021/05/04 01:26:41;;;;;;;13.77;12.67;;;;;;;8.20;66.21;100409.91;6139982;28;20255;-51
2021/05/04 01:30:01;;;;;;;14.90;13.70;;;;;;;7.68;67.32;100387.72;6137585;28;20227;-53
2021/05/04 01:33:22;;;;;;;14.77;13.37;;;;;;;7.83;67.15;100377.28;6139522;28;20235;-54
2021/05/04 01:36:42;;;;;;;14.67;13.37;;;;;;;7.73;67.53;100364.38;6128612;28;20701;-51
2021/05/04 01:40:05;;;;;;;13.30;12.10;;;;;;;7.98;66.74;100340.03;6135216;28;20223;-53
2021/05/04 01:43:25;;;;;;;13.23;12.03;;;;;;;8.24;65.69;100342.47;6131322;28;20231;-52
2021/05/04 01:46:46;;;;;;;15.00;13.80;;;;;;;8.32;65.81;100312.97;6142818;28;20235;-50
2021/05/04 01:50:08;;;;;;;13.23;12.13;;;;;;;8.47;65.15;100303.41;6127896;28;20288;-55
2021/05/04 01:53:28;;;;;;;12.63;11.63;;;;;;;8.31;64.91;100281.00;6132386;28;20231;-53
2021/05/04 01:56:51;;;;;;;12.67;11.47;;;;;;;8.14;65.37;100251.75;6142366;28;20255;-53
2021/05/04 02:00:12;;;;;;;14.07;12.77;;;;;;;8.28;65.22;100249.91;6136282;28;20219;-50
2021/05/04 02:03:33;;;;;;;13.70;12.47;;;;;;;8.10;65.73;100240.53;6129653;28;20235;-53
2021/05/04 02:06:54;;;;;;;12.57;11.40;;;;;;;8.50;65.02;100226.38;6134235;28;20235;-55
2021/05/04 02:10:14;;;;;;;11.30;10.30;;;;;;;8.55;63.77;100217.69;6127431;28;20605;-50
2021/05/04 02:13:35;;;;;;;11.23;10.23;;;;;;;8.62;63.77;100208.09;6142548;28;20239;-49
2021/05/04 02:16:56;;;;;;;11.50;10.60;;;;;;;8.30;64.00;100193.69;6134004;28;20223;-51
2021/05/04 02:20:17;;;;;;;10.63;9.73;;;;;;;8.05;65.50;100195.63;6140797;28;20263;-53
2021/05/04 02:23:38;;;;;;;12.60;11.50;;;;;;;8.34;64.00;100182.41;6123076;28;20762;-55
2021/05/04 02:26:58;;;;;;;10.50;9.50;;;;;;;8.26;64.49;100155.69;6137621;28;20263;-52
2021/05/04 02:30:20;;;;;;;10.67;9.63;;;;;;;8.39;64.17;100136.47;6137083;28;20235;-52
2021/05/04 02:33:42;;;;;;;11.13;10.07;;;;;;;8.30;64.93;100121.03;6138160;28;20230;-49
2021/05/04 02:37:02;;;;;;;11.63;10.60;;;;;;;8.48;64.19;100100.09;6134750;28;20243;-52
2021/05/04 02:40:23;;;;;;;10.57;9.77;;;;;;;8.55;64.26;100076.66;6120282;28;20231;-53
2021/05/04 02:43:43;;;;;;;10.53;9.63;;;;;;;8.33;64.97;100053.53;6135698;28;20239;-54
2021/05/04 02:47:05;;;;;;;10.77;9.90;;;;;;;8.18;65.26;100035.56;6130621;28;20928;-54
2021/05/04 02:50:25;;;;;;;9.87;9.07;;;;;;;8.03;65.21;100032.28;6134815;28;20231;-53
2021/05/04 02:53:46;;;;;;;9.10;8.40;;;;;;;8.09;64.68;100027.00;6128502;28;20234;-51
2021/05/04 02:57:06;;;;;;;9.37;8.20;;;;;;;8.27;64.01;100004.31;6139743;28;20755;-48
2021/05/04 03:00:27;;;;;;;14.57;13.17;;;;;;;8.47;64.00;99988.53;6141441;28;20226;-54
2021/05/04 03:03:48;;;;;;;11.27;10.20;;;;;;;8.24;64.40;99991.41;6148801;28;20309;-51
2021/05/04 03:07:09;;;;;;;17.13;15.50;;;;;;;8.51;64.04;99966.00;6140848;28;20604;-53
2021/05/04 03:10:30;;;;;;;9.00;8.10;;;;;;;8.26;64.04;99963.72;6138539;28;20235;-55
2021/05/04 03:13:50;;;;;;;8.00;7.33;;;;;;;8.23;64.28;99945.59;6141914;28;20246;-54
2021/05/04 03:17:12;;;;;;;9.33;8.43;;;;;;;8.04;64.17;99925.06;6123243;28;20593;-52
2021/05/04 03:20:33;;;;;;;8.77;7.70;;;;;;;8.16;62.55;99920.59;6139163;28;20691;-55
2021/05/04 03:23:53;;;;;;;8.43;7.73;;;;;;;8.29;62.55;99922.16;6141079;28;20235;-51
2021/05/04 03:27:14;;;;;;;8.33;7.63;;;;;;;8.28;61.89;99917.88;6133333;28;20318;-52
2021/05/04 03:30:35;;;;;;;8.67;7.77;;;;;;;8.36;61.70;99910.81;6137183;28;20239;-53
2021/05/04 03:33:56;;;;;;;7.63;6.93;;;;;;;8.21;62.82;99900.66;6138693;28;20318;-51
2021/05/04 03:37:17;;;;;;;9.03;8.13;;;;;;;8.43;61.47;99896.91;6131148;28;20232;-54
2021/05/04 03:40:38;;;;;;;8.13;7.33;;;;;;;8.53;61.01;99912.31;6120675;28;20242;-54
2021/05/04 03:43:58;;;;;;;6.80;5.63;;;;;;;8.17;61.26;99883.44;6135967;28;20621;-55
2021/05/04 03:47:19;;;;;;;6.63;6.03;;;;;;;8.40;61.68;99876.16;6136278;28;20235;-56
2021/05/04 03:50:40;;;;;;;7.47;6.63;;;;;;;8.65;60.89;99849.88;6136220;28;20231;-51
2021/05/04 03:54:01;;;;;;;8.60;7.83;;;;;;;8.16;61.87;99832.44;6135546;28;20227;-54
2021/05/04 03:57:21;;;;;;;7.23;6.63;;;;;;;8.79;60.65;99808.09;6130954;28;20578;-52
2021/05/04 04:00:42;;;;;;;6.30;5.70;;;;;;;8.87;60.48;99812.25;6134059;28;20219;-54
2021/05/04 04:04:02;;;;;;;6.23;5.73;;;;;;;8.28;60.88;99804.56;6142266;28;20235;-55
2021/05/04 04:07:23;;;;;;;9.83;6.40;;;;;;;8.82;60.58;99802.81;6137613;28;20518;-54
2021/05/04 04:10:44;;;;;;;7.00;6.40;;;;;;;8.83;59.97;99789.81;6142775;28;20223;-53
2021/05/04 04:14:05;;;;;;;6.47;5.97;;;;;;;8.81;60.19;99788.16;6143990;28;20231;-51
2021/05/04 04:17:25;;;;;;;6.47;5.87;;;;;;;8.87;60.11;99795.81;6141340;28;20239;-53
2021/05/04 04:20:46;;;;;;;5.20;4.70;;;;;;;9.08;60.08;99784.19;6144980;28;20613;-51
2021/05/04 04:24:07;;;;;;;5.27;4.87;;;;;;;8.77;60.79;99782.16;6139604;28;20328;-51
2021/05/04 04:27:28;;;;;;;6.67;5.47;;;;;;;8.81;61.54;99782.97;6139280;28;20318;-51
2021/05/04 04:30:48;;;;;;;5.37;4.87;;;;;;;8.80;61.33;99770.84;6141074;28;20232;-56
2021/05/04 04:34:09;;;;;;;5.97;5.03;;;;;;;8.92;61.69;99759.38;6137797;28;20255;-52
2021/05/04 04:37:30;;;;;;;6.10;5.53;;;;;;;8.77;61.85;99760.53;6142882;28;20239;-50
2021/05/04 04:40:51;;;;;;;4.97;4.57;;;;;;;8.93;61.24;99740.31;6144117;28;21142;-55
2021/05/04 04:44:12;;;;;;;5.30;4.67;;;;;;;8.87;60.41;99728.31;6135232;28;20235;-54
2021/05/04 04:47:33;;;;;;;5.63;5.13;;;;;;;8.96;59.79;99733.34;6128590;28;20234;-54
2021/05/04 04:50:53;;;;;;;4.87;4.47;;;;;;;9.14;60.11;99729.50;6139421;28;20243;-52
2021/05/04 04:54:14;;;;;;;4.77;4.33;;;;;;;9.06;60.75;99731.41;6132293;28;20219;-54
2021/05/04 04:57:35;;;;;;;4.67;4.27;;;;;;;9.08;61.16;99727.03;6136138;28;20235;-54
2021/05/04 05:00:56;;;;;;;5.90;5.40;;;;;;;9.06;61.41;99714.06;6138197;28;20231;-53
2021/05/04 05:04:17;;;;;;;5.43;5.00;;;;;;;9.06;61.15;99710.63;6131288;28;20235;-53
2021/05/04 05:07:38;;;;;;;5.90;5.20;;;;;;;9.02;62.13;99693.41;6128928;28;21001;-51
2021/05/04 05:10:58;;;;;;;5.73;4.63;;;;;;;9.16;61.54;99686.16;6141267;28;20878;-54
2021/05/04 05:14:18;;;;;;;4.90;4.43;;;;;;;9.34;61.29;99686.66;6145442;28;20227;-55
2021/05/04 05:17:39;;;;;;;7.20;4.47;;;;;;;9.03;62.41;99685.59;6127468;28;20630;-51
2021/05/04 05:21:00;;;;;;;5.20;4.70;;;;;;;9.08;62.66;99680.28;6138574;28;20870;-53
2021/05/04 05:24:21;;;;;;;6.10;5.43;;;;;;;9.00;63.20;99669.22;6139724;28;20227;-51
2021/05/04 05:27:41;;;;;;;6.93;6.33;;;;;;;9.05;64.05;99672.56;6138998;28;20541;-51
2021/05/04 05:31:01;;;;;;;6.43;5.83;;;;;;;9.38;63.13;99659.72;6138283;28;20259;-49
2021/05/04 05:34:23;;;;;;;6.40;5.70;;;;;;;9.01;64.97;99655.31;6136124;28;20263;-51
2021/05/04 05:37:43;;;;;;;7.43;6.77;;;;;;;8.95;66.10;99645.91;6137999;28;20223;-55
2021/05/04 05:41:04;;;;;;;5.50;5.10;;;;;;;8.82;66.90;99645.34;6133443;28;20586;-53
2021/05/04 05:44:24;;;;;;;5.63;5.03;;;;;;;8.63;68.20;99639.66;6128778;28;20227;-54
2021/05/04 05:47:44;;;;;;;7.97;5.50;;;;;;;8.61;68.49;99627.59;6129245;28;20235;-52
2021/05/04 05:51:05;;;;;;;5.40;4.90;;;;;;;8.64;69.01;99624.94;6133743;28;20235;-53
2021/05/04 05:54:26;;;;;;;7.83;6.03;;;;;;;8.65;69.55;99613.69;6132857;28;20227;-56
2021/05/04 05:57:46;;;;;;;5.27;4.77;;;;;;;8.66;69.43;99623.16;6135870;28;20231;-57
2021/05/04 06:01:07;;;;;;;6.40;5.23;;;;;;;8.77;69.52;99613.41;6133944;28;20267;-57
2021/05/04 06:04:27;;;;;;;6.57;6.00;;;;;;;8.62;70.55;99600.75;6132645;28;20355;-56
2021/05/04 06:07:49;;;;;;;5.27;4.87;;;;;;;8.47;71.05;99591.53;6140754;28;20250;-55
2021/05/04 06:11:09;;;;;;;6.10;5.13;;;;;;;8.76;70.39;99577.09;6134814;28;20243;-52
2021/05/04 06:14:30;;;;;;;12.80;5.63;;;;;;;8.47;72.20;99561.28;6129092;28;20234;-55
2021/05/04 06:17:50;;;;;;;6.07;5.50;;;;;;;8.66;71.51;99559.13;6137450;28;20665;-57
2021/05/04 06:21:11;;;;;;;6.30;5.80;;;;;;;8.77;71.02;99553.72;6137503;28;20235;-54
2021/05/04 06:24:32;;;;;;;6.13;5.63;;;;;;;8.79;70.91;99548.50;6132490;28;20600;-56
2021/05/04 06:27:53;;;;;;;5.33;4.80;;;;;;;8.82;70.41;99538.91;6129449;28;20235;-54
2021/05/04 06:31:15;;;;;;;7.03;5.53;;;;;;;8.79;71.46;99541.56;6132331;28;20553;-52
2021/05/04 06:34:35;;;;;;;6.37;5.87;;;;;;;8.47;72.95;99521.47;6130141;28;21066;-55
2021/05/04 06:37:56;;;;;;;6.80;5.97;;;;;;;8.66;72.85;99521.94;6130292;28;20243;-57
2021/05/04 06:41:17;;;;;;;5.90;5.40;;;;;;;8.30;74.08;99516.63;6129645;28;20275;-55
2021/05/04 06:44:38;;;;;;;9.50;5.57;;;;;;;8.69;72.91;99503.72;6131886;28;20239;-52
2021/05/04 06:47:58;;;;;;;7.20;6.20;;;;;;;9.03;71.99;99489.94;6133098;28;20398;-56
2021/05/04 06:51:19;;;;;;;8.03;4.90;;;;;;;8.75;72.45;99492.34;6140308;28;20234;-53
2021/05/04 06:54:40;;;;;;;5.47;4.97;;;;;;;9.04;71.38;99494.25;6139959;28;20318;-55
2021/05/04 06:58:01;;;;;;;7.27;4.93;;;;;;;9.57;69.45;99471.25;6133440;28;20258;-57
2021/05/04 07:01:22;;;;;;;8.63;5.97;;;;;;;9.39;70.25;99467.41;6127603;28;21025;-53
2021/05/04 07:04:42;;;;;;;5.43;4.97;;;;;;;8.97;71.20;99477.13;6133108;28;20230;-54
2021/05/04 07:08:04;;;;;;;6.60;5.17;;;;;;;9.41;69.43;99467.38;6138371;28;20394;-54
2021/05/04 07:11:24;;;;;;;7.07;5.30;;;;;;;9.28;69.99;99459.03;6131928;28;20652;-53
2021/05/04 07:14:46;;;;;;;6.27;5.33;;;;;;;9.41;69.10;99451.78;6135175;28;20235;-54
2021/05/04 07:18:09;;;;;;;8.33;4.67;;;;;;;9.54;69.07;99449.69;6129613;28;20624;-57
2021/05/04 07:21:30;;;;;;;5.20;4.63;;;;;;;9.27;69.49;99434.81;6130541;28;20258;-52
2021/05/04 07:24:52;;;;;;;4.60;4.20;;;;;;;9.44;68.96;99433.50;6130869;28;20235;-55
2021/05/04 07:28:12;;;;;;;4.77;3.40;;;;;;;9.01;69.81;99437.19;6134785;28;20239;-55
2021/05/04 07:31:34;;;;;;;3.77;3.47;;;;;;;9.10;69.41;99426.59;6129477;28;20265;-53
2021/05/04 07:34:55;;;;;;;4.63;4.20;;;;;;;9.16;69.44;99418.63;6133420;28;20235;-54
2021/05/04 07:38:16;;;;;;;4.23;3.77;;;;;;;9.52;68.29;99413.38;6138742;28;20239;-56
2021/05/04 07:41:37;;;;;;;3.50;3.20;;;;;;;9.63;67.94;99408.75;6141511;28;20251;-55
2021/05/04 07:44:58;;;;;;;5.33;4.13;;;;;;;9.52;68.42;99402.97;6139462;28;20230;-52
2021/05/04 07:48:19;;;;;;;3.60;3.33;;;;;;;9.43;68.91;99398.88;6139007;28;20621;-56
2021/05/04 07:51:40;;;;;;;7.80;5.07;;;;;;;9.30;68.49;99399.25;6136944;28;20242;-56
2021/05/04 07:55:01;;;;;;;3.77;3.47;;;;;;;9.25;68.63;99399.38;6138922;28;20242;-54
2021/05/04 07:58:21;;;;;;;2.90;2.60;;;;;;;9.36;68.26;99384.34;6141800;28;20230;-57
2021/05/04 08:01:41;;;;;;;5.20;4.80;;;;;;;9.28;68.53;99391.47;6139517;28;20652;-57
2021/05/04 08:05:03;;;;;;;3.23;2.93;;;;;;;9.60;68.06;99405.38;6136553;28;20235;-56
2021/05/04 08:08:24;;;;;;;2.77;2.53;;;;;;;9.20;68.88;99394.28;6137740;28;20247;-55
2021/05/04 08:11:44;;;;;;;3.00;2.73;;;;;;;9.37;68.52;99382.59;6134061;28;20333;-55
2021/05/04 08:15:07;;;;;;;4.27;3.17;;;;;;;9.24;69.03;99388.09;6134982;28;20235;-58
2021/05/04 08:18:29;;;;;;;2.40;2.30;;;;;;;9.33;68.61;99370.59;6135156;28;20262;-54
2021/05/04 08:21:51;;;;;;;2.73;2.53;;;;;;;9.32;69.01;99372.31;6134884;28;20318;-58
2021/05/04 08:25:12;;;;;;;3.20;2.77;;;;;;;9.31;68.80;99368.03;6132855;28;20227;-56
2021/05/04 08:28:32;;;;;;;3.83;2.87;;;;;;;9.75;67.19;99363.34;6127493;28;20243;-56
2021/05/04 08:31:53;;;;;;;3.37;3.17;;;;;;;10.08;66.36;99355.44;6132915;28;20589;-55
2021/05/04 08:35:14;;;;;;;3.10;2.50;;;;;;;9.99;67.42;99351.38;6140219;28;20219;-53
2021/05/04 08:38:36;;;;;;;2.63;2.43;;;;;;;9.86;67.31;99344.81;6131964;28;20613;-56
2021/05/04 08:41:56;;;;;;;3.90;2.97;;;;;;;9.72;67.18;99352.19;6136119;28;20227;-51
2021/05/04 08:45:16;;;;;;;3.00;2.80;;;;;;;10.15;65.97;99356.09;6131619;28;20230;-56
2021/05/04 08:48:39;;;;;;;3.00;2.43;;;;;;;10.30;65.45;99344.38;6136450;28;20247;-53
2021/05/04 08:52:00;;;;;;;4.77;2.33;;;;;;;10.26;65.14;99354.03;6139456;28;20333;-56
2021/05/04 08:55:22;;;;;;;5.57;3.40;;;;;;;10.48;64.77;99337.75;6111870;28;20234;-55
2021/05/04 08:58:42;;;;;;;4.17;2.40;;;;;;;10.67;64.34;99338.88;6126736;28;20234;-56
2021/05/04 09:02:04;;;;;;;2.80;2.60;;;;;;;10.39;65.28;99331.09;6136308;28;20262;-53
2021/05/04 09:05:24;;;;;;;5.20;3.23;;;;;;;10.02;66.05;99340.88;6131299;28;20246;-57
2021/05/04 09:08:48;;;;;;;2.97;2.77;;;;;;;9.91;67.23;99348.16;6129556;28;20238;-56
2021/05/04 09:12:31;;;;;;;7.90;3.10;;;;;;;9.99;67.45;99340.13;6127640;28;20239;-58
2021/05/04 09:19:56;;;;;;;4.30;3.43;;;;;;;9.94;70.80;99327.22;6110151;28;21115;-54
2021/05/04 09:23:17;;;;;;;3.80;3.40;;;;;;;9.64;72.02;99322.06;6137386;28;20629;-55
2021/05/04 09:26:37;;;;;;;4.17;3.57;;;;;;;9.51;72.28;99318.09;6133619;28;20235;-54
2021/05/04 09:30:01;;;;;;;3.57;2.93;;;;;;;9.54;72.02;99312.84;6137945;28;20231;-55
2021/05/04 09:33:22;;;;;;;3.37;3.07;;;;;;;9.33;70.89;99313.44;6137563;28;20231;-56
2021/05/04 09:36:44;;;;;;;5.17;3.20;;;;;;;9.64;70.55;99303.03;6138043;28;20589;-56
2021/05/04 09:40:24;;;;;;;2.90;2.50;;;;;;;9.90;68.62;99286.63;6137811;28;20318;-54
2021/05/04 09:43:44;;;;;;;3.63;2.73;;;;;;;9.78;67.80;99297.41;6135182;28;20338;-53
2021/05/04 09:47:06;;;;;;;2.47;2.20;;;;;;;9.85;67.53;99283.34;6136608;28;20231;-50
2021/05/04 09:50:27;;;;;;;3.37;2.47;;;;;;;9.98;66.26;99279.47;6133201;28;20613;-55
2021/05/04 09:53:50;;;;;;;5.10;1.33;;;;;;;10.02;65.55;99275.00;6133021;28;20227;-53
2021/05/04 09:57:34;;;;;;;3.17;2.03;;;;;;;10.11;64.23;99274.69;6134613;28;20494;-52
2021/05/04 10:00:54;;;;;;;2.17;1.60;;;;;;;10.10;64.41;99267.81;6135790;28;20243;-57
2021/05/04 10:04:18;;;;;;;3.03;2.03;;;;;;;10.21;64.40;99257.91;6134162;28;20239;-59
2021/05/04 10:07:39;;;;;;;2.30;1.60;;;;;;;10.09;64.13;99267.84;6134329;28;20231;-56
2021/05/04 10:11:01;;;;;;;2.20;2.00;;;;;;;9.94;64.59;99264.81;6136567;28;20231;-56
2021/05/04 10:14:23;;;;;;;2.10;1.83;;;;;;;10.10;64.29;99248.72;6134991;28;20691;-54
2021/05/04 10:17:43;;;;;;;4.93;2.60;;;;;;;10.15;64.40;99257.25;6136911;28;20238;-52
2021/05/04 10:21:06;;;;;;;2.80;1.70;;;;;;;10.33;63.25;99245.41;6136972;28;20306;-56
2021/05/04 10:24:27;;;;;;;3.10;2.80;;;;;;;10.33;63.26;99241.09;6135780;28;20235;-57
2021/05/04 10:27:51;;;;;;;3.17;2.20;;;;;;;10.36;63.63;99240.97;6131632;28;20240;-55
2021/05/04 10:31:14;;;;;;;2.80;1.90;;;;;;;10.15;63.93;99246.84;6133175;28;20235;-54
2021/05/04 10:34:36;;;;;;;3.80;2.50;;;;;;;10.36;63.14;99235.75;6124950;28;20324;-58
2021/05/04 10:37:59;;;;;;;3.23;2.63;;;;;;;10.29;63.19;99234.22;6129460;28;20338;-57
2021/05/04 10:41:20;;;;;;;4.47;2.43;;;;;;;10.40;62.67;99239.13;6127766;28;20257;-54
2021/05/04 10:45:07;;;;;;;3.40;2.47;;;;;;;10.68;61.20;99236.41;6136235;28;20235;-54
2021/05/04 10:48:40;;;;;;;4.03;2.07;;;;;;;10.78;60.23;99234.38;6125115;28;20235;-55
2021/05/04 10:52:00;;;;;;;2.17;2.00;;;;;;;10.67;61.06;99250.34;6131660;28;20648;-57
2021/05/04 10:55:24;;;;;;;2.20;2.00;;;;;;;10.89;60.78;99231.38;6131407;28;20231;-52
2021/05/04 10:58:47;;;;;;;2.13;1.70;;;;;;;11.10;60.15;99227.16;6131964;28;20328;-55
2021/05/04 11:02:26;;;;;;;3.10;1.97;;;;;;;11.20;60.29;99234.56;6128322;28;20231;-55
2021/05/04 11:05:47;;;;;;;3.83;2.50;;;;;;;11.30;60.00;99223.78;6139290;28;20269;-57
2021/05/04 11:09:13;;;;;;;3.70;1.87;;;;;;;11.48;59.66;99210.09;6142231;28;20283;-52
2021/05/04 11:12:38;;;;;;;2.93;2.47;;;;;;;11.29;60.45;99220.34;6137126;28;20227;-55
2021/05/04 11:16:29;;;;;;;2.60;2.40;;;;;;;11.66;58.66;99194.63;6142316;28;20230;-53
2021/05/04 11:19:49;;;;;;;3.37;2.50;;;;;;;11.93;56.79;99193.56;6140573;28;20231;-52
2021/05/04 11:23:10;;;;;;;4.67;2.47;;;;;;;11.96;55.90;99188.22;6131252;28;20543;-56
2021/05/04 11:26:44;;;;;;;2.17;2.07;;;;;;;11.85;56.73;99187.78;6139582;28;20234;-60
2021/05/04 11:30:07;;;;;;;2.77;1.73;;;;;;;12.26;55.18;99187.88;6138878;28;20226;-56
2021/05/04 11:33:30;;;;;;;1.30;1.20;;;;;;;12.40;55.21;99188.13;6127620;28;20243;-57
2021/05/04 11:36:51;;;;;;;2.77;1.23;;;;;;;11.89;56.65;99178.06;6135527;28;20337;-56
2021/05/04 11:40:20;;;;;;;1.13;1.00;;;;;;;11.75;58.19;99178.63;6133258;28;20235;-55
2021/05/04 11:43:47;;;;;;;1.40;1.30;;;;;;;11.77;58.41;99177.66;6132342;28;20234;-55
2021/05/04 11:47:19;;;;;;;2.63;1.67;;;;;;;11.68;59.05;99185.00;6122868;28;20227;-56
2021/05/04 11:50:42;;;;;;;2.13;1.57;;;;;;;12.14;57.61;99175.34;6145701;28;20238;-53
2021/05/04 11:54:03;;;;;;;2.27;1.30;;;;;;;11.75;59.38;99191.66;6138142;28;20546;-57
2021/05/04 11:57:28;;;;;;;1.80;1.70;;;;;;;12.16;58.56;99157.84;6134479;28;20235;-56
2021/05/04 12:00:56;;;;;;;2.60;2.40;;;;;;;11.96;59.42;99166.47;6132078;28;20239;-57
2021/05/04 12:04:18;;;;;;;2.33;2.13;;;;;;;11.22;60.54;99185.88;6140077;28;20582;-54
2021/05/04 12:07:43;;;;;;;5.33;2.30;;;;;;;11.42;64.41;99187.69;6142764;28;20235;-57
2021/05/04 12:11:03;;;;;;;2.60;2.13;;;;;;;11.11;67.17;99151.53;6137299;28;20231;-56
2021/05/04 12:14:24;;;;;;;3.70;3.17;;;;;;;11.00;67.19;99161.50;6137030;28;21916;-53
2021/05/04 12:17:55;;;;;;;2.83;2.63;;;;;;;10.86;67.06;99176.78;6136097;28;20548;-59
2021/05/04 12:21:17;;;;;;;2.50;2.40;;;;;;;11.28;67.07;99160.47;6141303;28;20644;-57
2021/05/04 12:24:37;;;;;;;2.40;2.20;;;;;;;11.26;67.66;99155.31;6132398;28;20234;-55
2021/05/04 12:27:58;;;;;;;3.97;2.47;;;;;;;11.15;65.48;99157.50;6137697;28;20835;-56
2021/05/04 12:31:21;;;;;;;4.27;2.43;;;;;;;11.45;66.11;99124.16;6141225;28;20235;-52
2021/05/04 12:34:41;;;;;;;2.13;1.93;;;;;;;13.79;58.14;99108.66;6134140;28;20240;-56
2021/05/04 12:38:07;;;;;;;2.67;2.00;;;;;;;12.10;62.77;99122.44;6131280;28;20314;-55
2021/05/04 12:41:33;;;;;;;3.50;3.20;;;;;;;12.41;63.70;99119.34;6142891;28;20243;-56
2021/05/04 12:45:07;;;;;;;2.70;2.50;;;;;;;11.91;63.84;99131.94;6133177;28;20774;-56
2021/05/04 12:48:28;;;;;;;2.93;2.40;;;;;;;11.82;63.17;99141.81;6126691;28;20243;-58
2021/05/04 12:51:50;;;;;;;4.73;3.23;;;;;;;11.70;63.26;99112.75;6129511;28;20242;-54
2021/05/04 12:55:13;;;;;;;4.10;3.00;;;;;;;12.86;61.44;99111.28;6128139;28;20227;-74
2021/05/04 12:58:51;;;;;;;2.83;2.60;;;;;;;12.36;60.79;99089.97;6138162;28;20274;-54
2021/05/04 13:02:21;;;;;;;3.37;3.07;;;;;;;12.20;58.84;99081.97;6127783;28;20235;-52
2021/05/04 13:05:41;;;;;;;3.60;2.50;;;;;;;12.27;58.17;99076.47;6144362;28;21457;-54
2021/05/04 13:09:13;;;;;;;3.73;2.70;;;;;;;12.13;58.53;99079.69;6137122;28;20254;-57
2021/05/04 13:12:43;;;;;;;4.63;2.50;;;;;;;12.06;57.98;99073.03;6139558;28;20462;-52
2021/05/04 13:30:56;;;;;;;3.17;2.07;;;;;;;-146.32;100.00;58893.91;6111234;28;20338;-57
2021/05/04 13:34:24;;;;;;;4.30;1.90;;;;;;;-146.32;100.00;58893.91;6140485;28;20326;-55
2021/05/04 13:37:59;;;;;;;2.80;2.20;;;;;;;-146.32;100.00;58893.91;6135576;28;20330;-57
2021/05/04 13:48:53;;;;;;;4.13;3.03;;;;;;;9.17;80.17;99152.84;6141701;28;20243;-58
2021/05/04 13:52:14;;;;;;;5.07;3.73;;;;;;;11.44;72.57;99132.91;6142640;28;20239;-55
2021/05/04 13:55:34;;;;;;;4.40;3.53;;;;;;;11.46;71.25;99158.91;6136468;28;20235;-56
2021/05/04 13:58:55;;;;;;;2.93;2.40;;;;;;;11.13;72.26;99148.88;6136822;28;20235;-54
2021/05/04 14:02:23;;;;;;;3.60;2.83;;;;;;;10.93;70.58;99134.81;6134516;28;20231;-57
2021/05/04 14:10:02;;;;;;;3.97;2.83;;;;;;;10.47;73.26;99144.31;6075348;28;20235;-55
2021/05/04 14:27:57;;;;;;;1.60;1.50;;;;;;;11.34;60.40;99168.03;6138339;28;20231;-54
2021/05/04 14:31:18;;;;;;;2.40;1.63;;;;;;;11.43;57.87;99157.25;6140332;28;20238;-54
2021/05/04 14:34:40;;;;;;;1.83;1.67;;;;;;;11.46;57.40;99156.28;6133213;28;20231;-53
2021/05/04 14:38:12;;;;;;;2.70;1.20;;;;;;;11.07;58.51;99160.38;6144495;28;20263;-55
2021/05/04 15:00:33;;;;;;;1.40;1.23;;;;;;;9.94;63.31;99233.63;6111891;28;20238;-54
2021/05/04 15:03:54;;;;;;;0.83;0.83;;;;;;;9.03;66.82;99249.31;6138259;28;20239;-52
2021/05/04 15:07:14;;;;;;;1.30;1.20;;;;;;;9.39;65.94;99236.16;6129636;28;20250;-55
2021/05/04 15:10:35;;;;;;;4.63;1.13;;;;;;;9.23;66.76;99256.53;6140683;28;20226;-57
2021/05/04 15:13:57;;;;;;;1.87;1.23;;;;;;;8.48;71.22;99253.38;6150039;28;20235;-53
2021/05/04 15:17:22;;;;;;;0.87;0.87;;;;;;;8.46;70.33;99305.28;6136701;28;20239;-54
2021/05/04 15:21:17;;;;;;;1.17;1.10;;;;;;;8.96;69.43;99257.31;6136070;28;20239;-55
2021/05/04 15:24:37;;;;;;;1.67;1.37;;;;;;;8.98;68.53;99260.72;6131668;28;20503;-53
2021/05/04 15:27:58;;;;;;;0.87;0.80;;;;;;;9.13;67.40;99265.50;6137365;28;20238;-51
2021/05/04 15:31:20;;;;;;;1.27;0.93;;;;;;;9.37;67.35;99244.91;6143773;28;20235;-55
2021/05/04 15:34:42;;;;;;;1.30;1.00;;;;;;;9.26;66.37;99245.19;6129987;28;20231;-54
2021/05/04 15:38:04;;;;;;;1.50;1.03;;;;;;;9.04;67.16;99239.78;6141365;28;20231;-55
2021/05/04 15:41:25;;;;;;;2.30;1.63;;;;;;;9.51;65.81;99221.09;6133282;28;20240;-57
2021/05/04 15:44:45;;;;;;;1.83;1.43;;;;;;;9.64;65.73;99225.88;6137278;28;20261;-55
2021/05/04 15:48:12;;;;;;;3.17;2.10;;;;;;;9.49;65.33;99236.75;6143215;28;20243;-55
2021/05/04 15:51:52;;;;;;;2.73;1.63;;;;;;;9.77;64.32;99209.91;6136365;28;20523;-57
2021/05/04 16:02:41;;;;;;;2.47;1.63;;;;;;;10.03;63.29;99222.09;6146816;28;20235;-54
2021/05/04 16:09:56;;;;;;;2.77;1.50;;;;;;;9.39;63.79;99240.50;6109787;29;20268;-56
2021/05/04 16:13:17;;;;;;;2.00;1.50;;;;;;;9.91;62.64;99225.94;6121804;28;20227;-57
2021/05/04 16:16:38;;;;;;;3.33;1.40;;;;;;;9.92;62.56;99227.63;6129820;28;20286;-55
2021/05/04 16:20:02;;;;;;;3.70;1.83;;;;;;;10.04;62.71;99208.16;6144107;28;20891;-58
2021/05/04 16:23:26;;;;;;;3.80;1.50;;;;;;;9.85;61.91;99213.97;6139303;28;22316;-53
2021/05/04 16:27:00;;;;;;;4.53;1.97;;;;;;;9.88;61.58;99202.63;6140050;28;20254;-55
2021/05/04 16:30:21;;;;;;;2.97;1.70;;;;;;;9.68;62.11;99229.25;6141266;28;20246;-54
2021/05/04 16:33:42;;;;;;;2.93;1.57;;;;;;;9.85;61.80;99187.97;6142866;28;20592;-55
2021/05/04 16:37:03;;;;;;;3.47;2.10;;;;;;;9.86;61.43;99189.66;6148876;28;20542;-55
2021/05/04 16:40:23;;;;;;;2.87;2.13;;;;;;;10.25;60.54;99202.28;6143147;28;20231;-53
2021/05/04 16:43:45;;;;;;;2.83;2.40;;;;;;;10.19;60.51;99204.22;6135834;28;20242;-51
2021/05/04 16:47:05;;;;;;;6.27;2.70;;;;;;;9.93;61.27;99199.88;6143964;28;20241;-55
2021/05/04 16:50:26;;;;;;;3.03;2.27;;;;;;;9.70;61.96;99213.59;6138266;28;20231;-52
2021/05/04 16:53:46;;;;;;;3.50;2.07;;;;;;;9.99;61.09;99189.28;6141507;28;20223;-53
2021/05/04 16:57:07;;;;;;;4.57;2.43;;;;;;;9.90;61.71;99185.22;6138939;28;20317;-54
2021/05/04 17:00:29;;;;;;;1.90;1.80;;;;;;;9.66;62.24;99200.69;6142582;28;20274;-55
2021/05/04 17:03:49;;;;;;;3.10;1.70;;;;;;;9.66;61.98;99205.88;6138821;28;20243;-52
2021/05/04 17:07:13;;;;;;;3.87;1.60;;;;;;;9.94;61.53;99201.56;6138714;28;20227;-54
2021/05/04 17:10:34;;;;;;;5.00;2.23;;;;;;;9.48;61.50;99224.66;6141038;28;20240;-53